createdAt,value
2022-12-22T00:00:33.821Z,87.13
2022-12-22T00:03:18.888Z,89.56
2022-12-22T00:06:08.419Z,89.48
2022-12-22T00:08:53.698Z,90.71
2022-12-22T00:11:39.415Z,91.24
2022-12-22T00:14:26.811Z,90.79
2022-12-22T00:17:11.656Z,91.86
2022-12-22T00:19:56.993Z,91.77
2022-12-22T00:22:44.058Z,92.94
2022-12-22T00:25:32.406Z,91.93
2022-12-22T00:28:17.411Z,91.57
2022-12-22T00:31:03.188Z,92.11
2022-12-22T00:33:48.690Z,92.39
2022-12-22T00:36:34.503Z,93.09
2022-12-22T00:39:21.065Z,91.98
2022-12-22T00:42:05.973Z,93.05
2022-12-22T00:44:50.604Z,91.62
2022-12-22T00:47:44.014Z,92.11
2022-12-22T00:50:29.909Z,92.50
2022-12-22T00:53:15.715Z,93.20
2022-12-22T00:56:02.269Z,92.61
2022-12-22T00:58:47.747Z,92.73
2022-12-22T01:01:32.733Z,92.07
2022-12-22T01:04:17.995Z,91.60
2022-12-22T01:07:03.201Z,91.86
2022-12-22T01:09:48.773Z,91.76
2022-12-22T01:12:38.733Z,91.18
2022-12-22T01:15:28.802Z,92.38
2022-12-22T01:18:13.844Z,91.97
2022-12-22T01:20:59.176Z,92.89
2022-12-22T01:23:44.532Z,91.56
2022-12-22T01:26:29.827Z,92.58
2022-12-22T01:29:16.647Z,92.16
2022-12-22T01:32:02.023Z,92.53
2022-12-22T01:34:46.853Z,93.84
2022-12-22T01:37:31.729Z,92.91
2022-12-22T01:40:16.533Z,92.73
2022-12-22T01:43:01.434Z,91.97
2022-12-22T01:45:50.506Z,92.35
2022-12-22T01:48:36.960Z,91.55
2022-12-22T01:51:25.954Z,93.12
2022-12-22T01:54:11.799Z,92.44
2022-12-22T01:56:57.600Z,91.54
2022-12-22T01:59:43.122Z,91.71
2022-12-22T02:02:30.018Z,92.02
2022-12-22T02:05:18.565Z,91.47
2022-12-22T02:08:27.493Z,91.65
2022-12-22T02:11:25.882Z,91.93
2022-12-22T02:14:29.483Z,92.11
2022-12-22T02:17:25.236Z,92.40
2022-12-22T02:20:38.535Z,91.93
2022-12-22T02:23:32.415Z,90.86
2022-12-22T02:26:23.737Z,92.19
2022-12-22T02:29:10.990Z,91.58
2022-12-22T02:31:57.315Z,90.67
2022-12-22T02:34:42.552Z,90.97
2022-12-22T02:37:46.575Z,91.49
2022-12-22T02:40:41.361Z,91.13
2022-12-22T02:43:41.129Z,92.18
2022-12-22T02:46:34.903Z,90.85
2022-12-22T02:49:29.268Z,90.93
2022-12-22T02:52:21.323Z,90.59
2022-12-22T02:55:06.061Z,91.50
2022-12-22T02:57:50.957Z,90.86
2022-12-22T03:00:36.305Z,93.33
2022-12-22T03:03:23.386Z,94.12
2022-12-22T03:06:08.687Z,92.32
2022-12-22T03:08:53.373Z,92.32
2022-12-22T03:11:38.150Z,91.02
2022-12-22T03:14:23.510Z,92.95
2022-12-22T03:17:08.197Z,90.94
2022-12-22T03:19:54.832Z,90.47
2022-12-22T03:22:40.046Z,92.62
2022-12-22T03:25:25.897Z,91.72
2022-12-22T03:27:53.335Z,91.97
2022-12-22T03:30:21.277Z,92.18
2022-12-22T03:32:48.724Z,91.86
2022-12-22T03:35:17.486Z,91.85
2022-12-22T03:37:44.878Z,90.96
2022-12-22T03:40:12.709Z,91.09
2022-12-22T03:43:03.141Z,92.91
2022-12-22T03:45:48.053Z,90.35
2022-12-22T03:48:15.527Z,90.80
2022-12-22T03:50:44.503Z,92.32
2022-12-22T03:53:11.931Z,91.40
2022-12-22T03:55:39.340Z,90.38
2022-12-22T03:58:06.782Z,91.50
2022-12-22T04:00:34.252Z,92.45
2022-12-22T04:03:01.897Z,91.68
2022-12-22T04:05:29.447Z,90.67
2022-12-22T04:07:58.253Z,91.67
2022-12-22T04:10:43.449Z,91.66
2022-12-22T04:13:10.885Z,91.97
2022-12-22T04:15:38.319Z,91.49
2022-12-22T04:18:05.874Z,92.05
2022-12-22T04:20:33.271Z,92.64
2022-12-22T04:23:02.396Z,92.29
2022-12-22T04:25:29.870Z,92.14
2022-12-22T04:27:57.332Z,92.19
2022-12-22T04:30:24.804Z,92.65
2022-12-22T04:32:52.267Z,92.27
2022-12-22T04:35:19.777Z,91.60
2022-12-22T04:37:47.198Z,92.77
2022-12-22T04:40:16.242Z,92.71
2022-12-22T04:42:43.684Z,93.06
2022-12-22T04:45:11.940Z,92.14
2022-12-22T04:47:39.754Z,91.90
2022-12-22T04:50:08.299Z,92.98
2022-12-22T04:52:35.758Z,93.37
2022-12-22T04:55:03.158Z,92.97
2022-12-22T04:57:35.469Z,91.98
2022-12-22T05:00:09.806Z,92.82
2022-12-22T05:02:37.398Z,92.89
2022-12-22T05:05:05.206Z,92.20
2022-12-22T05:07:32.620Z,93.38
2022-12-22T05:10:00.053Z,93.65
2022-12-22T05:12:44.841Z,94.25
2022-12-22T05:15:13.578Z,93.54
2022-12-22T05:17:41.077Z,93.70
2022-12-22T05:20:09.887Z,95.06
2022-12-22T05:22:37.325Z,93.04
2022-12-22T05:25:05.207Z,96.55
2022-12-22T05:27:32.666Z,94.96
2022-12-22T05:30:00.110Z,93.15
2022-12-22T05:32:29.133Z,94.49
2022-12-22T05:34:56.577Z,93.01
2022-12-22T05:37:24.111Z,93.43
2022-12-22T05:39:51.577Z,93.78
2022-12-22T05:42:35.781Z,92.97
2022-12-22T05:45:05.801Z,93.50
2022-12-22T05:47:34.641Z,93.84
2022-12-22T05:50:02.134Z,92.75
2022-12-22T05:52:29.683Z,93.01
2022-12-22T05:54:57.113Z,93.86
2022-12-22T05:57:24.735Z,92.98
2022-12-22T05:59:52.171Z,94.14
2022-12-22T06:02:19.734Z,92.83
2022-12-22T06:04:48.715Z,92.83
2022-12-22T06:07:16.160Z,94.27
2022-12-22T06:09:43.595Z,93.85
2022-12-22T06:12:11.246Z,93.88
2022-12-22T06:14:38.698Z,93.71
2022-12-22T06:17:06.433Z,93.28
2022-12-22T06:19:33.853Z,92.93
2022-12-22T06:22:02.752Z,92.88
2022-12-22T06:24:30.172Z,92.73
2022-12-22T06:26:57.608Z,93.98
2022-12-22T06:29:25.153Z,93.42
2022-12-22T06:31:52.611Z,93.77
2022-12-22T06:34:21.269Z,93.37
2022-12-22T06:36:49.252Z,93.37
2022-12-22T06:39:18.464Z,93.01
2022-12-22T06:42:03.567Z,92.94
2022-12-22T06:44:31.246Z,92.80
2022-12-22T06:46:58.714Z,93.17
2022-12-22T06:49:26.362Z,92.44
2022-12-22T06:51:53.852Z,92.96
2022-12-22T06:54:26.329Z,92.92
2022-12-22T06:56:54.169Z,92.87
2022-12-22T06:59:21.565Z,93.48
2022-12-22T07:01:49.109Z,93.37
2022-12-22T07:04:20.626Z,93.30
2022-12-22T07:06:48.177Z,93.38
2022-12-22T07:09:15.633Z,93.70
2022-12-22T07:11:44.388Z,92.99
2022-12-22T07:14:12.099Z,94.23
2022-12-22T07:16:39.623Z,93.56
2022-12-22T07:19:07.112Z,95.33
2022-12-22T07:21:34.599Z,94.96
2022-12-22T07:24:02.020Z,93.81
2022-12-22T07:26:29.548Z,100.00
2022-12-22T07:28:58.358Z,95.31
2022-12-22T07:31:26.024Z,90.55
2022-12-22T07:33:53.484Z,89.82
2022-12-22T07:36:21.719Z,88.57
2022-12-22T07:38:51.031Z,88.48
2022-12-22T07:41:40.071Z,90.27
2022-12-22T07:44:08.902Z,89.77
2022-12-22T07:46:38.500Z,90.59
2022-12-22T07:49:24.515Z,91.67
2022-12-22T07:51:52.559Z,92.18
2022-12-22T07:54:24.696Z,91.17
2022-12-22T07:56:52.170Z,92.62
2022-12-22T07:59:21.259Z,92.02
2022-12-22T08:01:48.831Z,91.65
2022-12-22T08:04:16.740Z,93.37
2022-12-22T08:06:44.385Z,92.98
2022-12-22T08:09:16.499Z,91.90
2022-12-22T08:11:43.988Z,91.00
2022-12-22T08:14:11.396Z,92.29
2022-12-22T08:16:40.307Z,93.11
2022-12-22T08:19:07.994Z,93.55
2022-12-22T08:21:35.494Z,92.71
2022-12-22T08:24:03.104Z,93.01
2022-12-22T08:26:36.261Z,92.48
2022-12-22T08:29:08.441Z,93.07
2022-12-22T08:31:36.489Z,94.24
2022-12-22T08:34:08.622Z,93.39
2022-12-22T08:36:42.155Z,92.82
2022-12-22T08:39:09.793Z,92.64
2022-12-22T08:41:52.789Z,92.48
2022-12-22T08:44:22.828Z,92.49
2022-12-22T08:46:50.707Z,92.46
2022-12-22T08:49:20.501Z,92.62
2022-12-22T08:51:48.563Z,93.18
2022-12-22T08:54:16.429Z,93.19
2022-12-22T08:56:44.199Z,93.42
2022-12-22T08:59:11.871Z,92.24
2022-12-22T09:01:42.722Z,91.87
2022-12-22T09:04:11.031Z,93.14
2022-12-22T09:06:41.351Z,95.17
2022-12-22T09:09:11.029Z,90.40
2022-12-22T09:11:39.567Z,88.23
2022-12-22T09:14:08.217Z,87.39
2022-12-22T09:16:36.268Z,85.23
2022-12-22T09:19:04.651Z,86.77
2022-12-22T09:21:32.110Z,85.16
2022-12-22T09:24:00.889Z,84.55
2022-12-22T09:26:30.009Z,87.36
2022-12-22T09:28:58.707Z,86.06
2022-12-22T09:31:27.218Z,86.88
2022-12-22T09:33:54.831Z,84.75
2022-12-22T09:36:24.961Z,87.80
2022-12-22T09:38:52.723Z,86.29
2022-12-22T09:41:27.375Z,86.30
2022-12-22T09:43:56.291Z,88.67
2022-12-22T09:46:26.088Z,90.13
2022-12-22T09:48:55.078Z,89.74
2022-12-22T09:51:27.062Z,90.36
2022-12-22T09:53:58.894Z,95.99
2022-12-22T09:56:29.999Z,94.48
2022-12-22T09:58:58.159Z,92.18
2022-12-22T10:01:38.514Z,92.90
2022-12-22T10:04:15.807Z,92.77
2022-12-22T10:06:52.446Z,91.42
2022-12-22T10:12:15.995Z,91.56
2022-12-22T10:14:45.136Z,90.93
2022-12-22T10:17:17.524Z,94.98
2022-12-22T10:19:46.219Z,93.40
2022-12-22T10:22:23.858Z,93.49
2022-12-22T10:24:51.658Z,92.19
2022-12-22T10:27:28.483Z,92.77
2022-12-22T10:30:21.397Z,93.71
2022-12-22T10:33:03.783Z,93.01
2022-12-22T10:35:49.779Z,95.71
2022-12-22T10:38:22.400Z,97.99
2022-12-22T10:40:58.234Z,95.26
2022-12-22T10:43:33.400Z,93.81
2022-12-22T10:46:01.953Z,93.19
2022-12-22T10:48:31.616Z,93.58
2022-12-22T10:51:00.524Z,93.70
2022-12-22T10:53:43.980Z,94.17
2022-12-22T10:56:22.422Z,93.46
2022-12-22T10:58:53.115Z,94.40
2022-12-22T11:01:30.820Z,92.76
2022-12-22T11:03:59.524Z,93.20
2022-12-22T11:06:27.153Z,93.08
2022-12-22T11:09:05.660Z,93.24
2022-12-22T11:11:47.659Z,95.80
2022-12-22T11:14:28.673Z,93.55
2022-12-22T11:17:03.734Z,95.76
2022-12-22T11:19:49.841Z,93.58
2022-12-22T11:22:29.508Z,92.76
2022-12-22T11:25:16.086Z,92.41
2022-12-22T11:27:54.768Z,93.03
2022-12-22T11:30:32.145Z,94.64
2022-12-22T11:33:15.953Z,94.41
2022-12-22T11:35:52.850Z,93.18
2022-12-22T11:38:27.089Z,93.48
2022-12-22T11:41:01.799Z,92.67
2022-12-22T11:43:42.220Z,92.43
2022-12-22T11:46:22.232Z,92.71
2022-12-22T11:49:06.489Z,91.36
2022-12-22T11:51:51.794Z,91.83
2022-12-22T11:54:42.317Z,93.21
2022-12-22T11:57:23.562Z,91.46
2022-12-22T11:59:58.437Z,94.85
2022-12-22T12:03:01.135Z,94.21
2022-12-22T12:06:09.437Z,95.06
2022-12-22T12:08:50.916Z,97.25
2022-12-22T12:11:25.129Z,95.21
2022-12-22T12:14:02.791Z,93.90
2022-12-22T12:16:38.487Z,93.53
2022-12-22T12:19:33.104Z,93.35
2022-12-22T12:22:05.485Z,93.56
2022-12-22T12:24:50.869Z,92.93
2022-12-22T12:27:36.306Z,93.70
2022-12-22T12:30:36.845Z,93.55
2022-12-22T12:32:59.199Z,94.67
2022-12-22T12:35:44.031Z,94.75
2022-12-22T12:38:56.424Z,97.13
2022-12-22T12:41:11.014Z,93.93
2022-12-22T12:43:39.040Z,93.79
2022-12-22T12:46:40.070Z,94.55
2022-12-22T12:49:49.410Z,94.37
2022-12-22T12:52:18.188Z,94.98
2022-12-22T12:54:47.175Z,94.78
2022-12-22T12:57:29.315Z,94.28
2022-12-22T12:59:58.799Z,94.15
2022-12-22T13:02:38.252Z,94.34
2022-12-22T13:05:29.393Z,94.11
2022-12-22T13:08:29.473Z,94.35
2022-12-22T13:12:10.461Z,93.72
2022-12-22T13:14:54.919Z,93.81
2022-12-22T13:17:41.710Z,94.66
2022-12-22T13:20:15.697Z,94.91
2022-12-22T13:22:44.840Z,94.48
2022-12-22T13:25:17.311Z,96.57
2022-12-22T13:27:44.936Z,95.95
2022-12-22T13:30:15.747Z,95.09
2022-12-22T13:32:45.938Z,97.13
2022-12-22T13:35:38.508Z,94.35
2022-12-22T13:38:06.899Z,95.13
2022-12-22T13:40:43.249Z,96.96
2022-12-22T13:43:13.830Z,94.92
2022-12-22T13:45:44.955Z,95.52
2022-12-22T13:48:17.105Z,94.64
2022-12-22T13:50:48.123Z,94.33
2022-12-22T13:53:49.576Z,94.83
2022-12-22T13:56:14.143Z,94.73
2022-12-22T13:58:45.906Z,95.68
2022-12-22T14:01:19.364Z,96.65
2022-12-22T14:04:00.198Z,95.49
2022-12-22T14:06:31.807Z,94.35
2022-12-22T14:09:18.224Z,95.84
2022-12-22T14:11:52.525Z,95.63
2022-12-22T14:14:24.696Z,95.01
2022-12-22T14:16:54.065Z,95.28
2022-12-22T14:19:23.568Z,96.65
2022-12-22T14:21:59.767Z,96.83
2022-12-22T14:24:33.244Z,95.30
2022-12-22T14:27:05.194Z,99.42
2022-12-22T14:29:32.748Z,100.00
2022-12-22T14:32:02.653Z,100.00
2022-12-22T14:34:32.998Z,100.00
2022-12-22T14:37:01.611Z,100.00
2022-12-22T14:39:31.842Z,100.00
2022-12-22T14:42:02.563Z,100.00
2022-12-22T14:44:34.592Z,100.00
2022-12-22T14:47:08.475Z,100.00
2022-12-22T14:49:36.582Z,100.00
2022-12-22T14:52:15.137Z,100.00
2022-12-22T14:54:47.416Z,100.00
2022-12-22T14:57:28.975Z,100.00
2022-12-22T15:00:05.748Z,100.00
2022-12-22T15:02:39.509Z,100.00
2022-12-22T15:05:25.003Z,100.00
2022-12-22T15:08:05.237Z,100.00
2022-12-22T15:10:39.610Z,100.00
2022-12-22T15:13:23.522Z,100.00
2022-12-22T15:15:53.003Z,100.00
2022-12-22T15:18:26.610Z,100.00
2022-12-22T15:20:54.374Z,100.00
2022-12-22T15:23:21.866Z,100.00
2022-12-22T15:25:49.397Z,100.00
2022-12-22T15:28:17.241Z,100.00
2022-12-22T15:30:44.924Z,100.00
2022-12-22T15:33:16.441Z,100.00
2022-12-22T15:35:44.604Z,100.00
2022-12-22T15:38:14.827Z,100.00
2022-12-22T15:40:42.541Z,100.00
2022-12-22T15:43:28.897Z,100.00
2022-12-22T15:45:58.088Z,100.00
2022-12-22T15:48:30.219Z,100.00
2022-12-22T15:50:58.573Z,100.00
2022-12-22T15:53:26.278Z,100.00
2022-12-22T15:55:58.460Z,100.00
2022-12-22T15:58:28.975Z,100.00
2022-12-22T16:00:56.645Z,100.00
2022-12-22T16:03:24.227Z,100.00
2022-12-22T16:05:54.463Z,100.00
2022-12-22T16:08:28.664Z,100.00
2022-12-22T16:10:56.131Z,100.00
2022-12-22T16:13:27.283Z,100.00
2022-12-22T16:15:57.047Z,100.00
2022-12-22T16:18:24.567Z,100.00
2022-12-22T16:20:53.530Z,100.00
2022-12-22T16:23:24.288Z,100.00
2022-12-22T16:25:58.769Z,100.00
2022-12-22T16:28:28.859Z,100.00
2022-12-22T16:30:56.414Z,100.00
2022-12-22T16:33:23.947Z,100.00
2022-12-22T16:35:52.661Z,100.00
2022-12-22T16:38:20.379Z,100.00
2022-12-22T16:40:49.895Z,100.00
2022-12-22T16:46:12.861Z,100.00
2022-12-22T16:48:46.518Z,100.00
2022-12-22T16:51:19.776Z,100.00
2022-12-22T16:53:47.754Z,100.00
2022-12-22T16:56:18.664Z,100.00
2022-12-22T16:58:46.585Z,100.00
2022-12-22T17:01:26.164Z,99.98
2022-12-22T17:03:54.005Z,99.87
2022-12-22T17:06:22.873Z,100.00
2022-12-22T17:08:50.596Z,100.00
2022-12-22T17:11:20.930Z,100.00
2022-12-22T17:13:48.817Z,100.00
2022-12-22T17:16:23.847Z,100.00
2022-12-22T17:18:51.561Z,100.00
2022-12-22T17:21:21.288Z,100.00
2022-12-22T17:23:52.130Z,100.00
2022-12-22T17:26:21.965Z,100.00
2022-12-22T17:28:50.145Z,99.85
2022-12-22T17:31:20.348Z,99.50
2022-12-22T17:33:48.473Z,99.82
2022-12-22T17:36:29.173Z,100.00
2022-12-22T17:38:58.769Z,100.00
2022-12-22T17:41:26.525Z,100.00
2022-12-22T17:43:53.977Z,100.00
2022-12-22T17:46:22.830Z,99.50
2022-12-22T17:48:50.672Z,98.01
2022-12-22T17:51:21.509Z,96.18
2022-12-22T17:53:49.349Z,96.91
2022-12-22T17:56:22.889Z,95.25
2022-12-22T17:58:51.091Z,95.20
2022-12-22T18:01:23.796Z,95.05
2022-12-22T18:03:51.777Z,93.54
2022-12-22T18:06:21.646Z,95.41
2022-12-22T18:08:50.135Z,95.58
2022-12-22T18:11:18.278Z,94.84
2022-12-22T18:13:47.126Z,93.68
2022-12-22T18:16:17.231Z,94.85
2022-12-22T18:18:45.374Z,93.39
2022-12-22T18:21:18.153Z,92.61
2022-12-22T18:23:49.979Z,93.90
2022-12-22T18:26:22.672Z,95.17
2022-12-22T18:28:51.856Z,93.43
2022-12-22T18:31:20.276Z,92.60
2022-12-22T18:33:48.148Z,93.55
2022-12-22T18:36:19.434Z,92.69
2022-12-22T18:38:48.871Z,93.04
2022-12-22T18:41:21.446Z,92.99
2022-12-22T18:43:49.228Z,93.14
2022-12-22T18:46:18.280Z,95.46
2022-12-22T18:48:46.190Z,98.11
2022-12-22T18:51:18.924Z,93.31
2022-12-22T18:53:46.570Z,95.36
2022-12-22T18:56:15.224Z,93.59
2022-12-22T18:58:43.444Z,95.85
2022-12-22T19:01:20.056Z,95.81
2022-12-22T19:03:48.590Z,93.32
2022-12-22T19:06:18.529Z,95.32
2022-12-22T19:08:48.274Z,90.26
2022-12-22T19:11:17.443Z,88.53
2022-12-22T19:13:47.578Z,85.61
2022-12-22T19:16:17.055Z,84.62
2022-12-22T19:18:46.172Z,86.04
2022-12-22T19:21:14.795Z,88.46
2022-12-22T19:23:42.192Z,89.65
2022-12-22T19:26:20.596Z,88.40
2022-12-22T19:28:51.987Z,90.39
2022-12-22T19:31:23.792Z,89.62
2022-12-22T19:33:53.997Z,90.08
2022-12-22T19:36:25.677Z,92.91
2022-12-22T19:39:02.755Z,92.28
2022-12-22T19:41:37.844Z,91.60
2022-12-22T19:44:06.261Z,92.58
2022-12-22T19:46:35.701Z,92.79
2022-12-22T19:49:04.639Z,92.97
2022-12-22T19:51:32.428Z,94.59
2022-12-22T19:53:59.863Z,93.67
2022-12-22T19:56:29.760Z,94.02
2022-12-22T19:58:59.865Z,94.65
2022-12-22T20:01:27.649Z,93.95
2022-12-22T20:03:55.929Z,93.92
2022-12-22T20:06:24.922Z,95.47
2022-12-22T20:08:52.338Z,95.63
2022-12-22T20:11:21.187Z,92.25
2022-12-22T20:13:49.028Z,94.21
2022-12-22T20:16:17.722Z,95.13
2022-12-22T20:18:46.651Z,97.38
2022-12-22T20:21:25.540Z,94.31
2022-12-22T20:23:56.272Z,95.91
2022-12-22T20:26:26.392Z,97.53
2022-12-22T20:28:54.490Z,98.47
2022-12-22T20:31:24.184Z,95.27
2022-12-22T20:33:54.829Z,96.06
2022-12-22T20:36:26.339Z,96.03
2022-12-22T20:38:58.474Z,96.11
2022-12-22T20:41:26.806Z,95.88
2022-12-22T20:43:54.648Z,94.22
2022-12-22T20:46:24.871Z,94.82
2022-12-22T20:48:56.045Z,93.95
2022-12-22T20:51:25.738Z,94.36
2022-12-22T20:53:54.655Z,93.84
2022-12-22T20:56:26.559Z,92.79
2022-12-22T20:58:55.004Z,93.55
2022-12-22T21:01:23.545Z,92.27
2022-12-22T21:03:51.431Z,94.34
2022-12-22T21:06:27.757Z,94.59
2022-12-22T21:08:59.020Z,92.19
2022-12-22T21:11:27.722Z,91.96
2022-12-22T21:13:57.231Z,93.25
2022-12-22T21:16:27.549Z,91.44
2022-12-22T21:18:55.900Z,93.83
2022-12-22T21:21:23.767Z,96.19
2022-12-22T21:23:51.449Z,95.57
2022-12-22T21:26:24.203Z,94.22
2022-12-22T21:28:52.935Z,94.30
2022-12-22T21:31:21.033Z,92.67
2022-12-22T21:33:50.314Z,92.83
2022-12-22T21:36:22.456Z,96.18
2022-12-22T21:38:52.929Z,92.77
2022-12-22T21:41:42.689Z,97.29
2022-12-22T21:44:12.394Z,95.27
2022-12-22T21:46:40.757Z,92.46
2022-12-22T21:49:13.744Z,91.22
2022-12-22T21:51:41.323Z,93.85
2022-12-22T21:54:08.758Z,92.97
2022-12-22T21:56:37.598Z,93.00
2022-12-22T21:59:05.175Z,91.40
2022-12-22T22:01:33.621Z,90.73
2022-12-22T22:04:01.248Z,92.71
2022-12-22T22:06:28.733Z,90.30
2022-12-22T22:08:56.193Z,91.20
2022-12-22T22:11:26.222Z,90.16
2022-12-22T22:13:55.097Z,91.45
2022-12-22T22:16:22.574Z,91.76
2022-12-22T22:18:50.814Z,90.93
2022-12-22T22:21:18.907Z,97.65
2022-12-22T22:23:46.387Z,100.00
2022-12-22T22:26:13.828Z,86.44
2022-12-22T22:28:41.221Z,88.92
2022-12-22T22:31:13.127Z,82.20
2022-12-22T22:33:40.586Z,83.39
2022-12-22T22:36:09.201Z,77.92
2022-12-22T22:38:36.753Z,76.71
2022-12-22T22:41:04.344Z,81.46
2022-12-22T22:43:31.765Z,80.25
2022-12-22T22:45:59.208Z,81.87
2022-12-22T22:48:28.093Z,84.97
2022-12-22T22:50:55.502Z,86.16
2022-12-22T22:53:23.005Z,87.26
2022-12-22T22:55:50.466Z,88.41
2022-12-22T22:58:19.105Z,89.92
2022-12-22T23:00:47.636Z,91.33
2022-12-22T23:03:15.378Z,90.49
2022-12-22T23:05:45.198Z,91.06
2022-12-22T23:08:12.683Z,89.57
2022-12-22T23:10:42.061Z,93.28
2022-12-22T23:13:10.279Z,90.46
2022-12-22T23:15:37.749Z,89.24
2022-12-22T23:18:05.526Z,89.46
2022-12-22T23:20:33.005Z,88.58
2022-12-22T23:23:01.771Z,88.11
2022-12-22T23:25:29.259Z,89.37
2022-12-22T23:27:56.853Z,88.90
2022-12-22T23:30:24.403Z,89.65
2022-12-22T23:32:52.081Z,88.99
2022-12-22T23:35:19.925Z,88.41
2022-12-22T23:37:47.370Z,89.47
2022-12-22T23:43:04.211Z,86.86
2022-12-22T23:45:32.294Z,86.61
2022-12-22T23:48:00.171Z,88.84
2022-12-22T23:50:28.456Z,89.37
2022-12-22T23:52:55.924Z,87.99
2022-12-22T23:55:25.135Z,87.73
2022-12-22T23:57:53.694Z,86.86
